Time;durP1;ratioP1;P1;durP2;ratioP2;P2;SDS_P1;SDS_P2;PMS_P1;PMS_P2;Temp;Humidity;BMP_temperature;BMP_pressure;BME280_temperature;BME280_humidity;BME280_pressure;Samples;Min_cycle;Max_cycle;Signal;HPM_P1;HPM_P2
2019/09/05 00:00:02;;;;;;;4.3;1.9;;;;;;;20.27;57.89551;1001.925;;;;
2019/09/05 00:02:27;;;;;;;3.5;1.8;;;;;;;20.22;58.14648;1002.024;;;;
2019/09/05 00:04:52;;;;;;;3.4;1.9;;;;;;;20.28;57.21777;1001.995;;;;
2019/09/05 00:07:17;;;;;;;5.5;1.9;;;;;;;20.37;56.84277;1001.949;;;;
2019/09/05 00:09:42;;;;;;;4.2;1.9;;;;;;;20.43;57.17871;1001.913;;;;
2019/09/05 00:12:08;;;;;;;5;2.2;;;;;;;20.52;58.72461;1001.884;;;;
2019/09/05 00:14:33;;;;;;;3.1;1.7;;;;;;;20.51;58.73438;1001.99;;;;
2019/09/05 00:16:58;;;;;;;6.5;1.9;;;;;;;20.45;58.56348;1002.011;;;;
2019/09/05 00:19:23;;;;;;;5.2;2;;;;;;;20.31;58.48535;1002.006;;;;
2019/09/05 00:21:48;;;;;;;4.4;1.8;;;;;;;20.11;58.64648;1002.047;;;;
2019/09/05 00:24:13;;;;;;;4.3;2;;;;;;;20.15;58.38184;1002.074;;;;
2019/09/05 00:26:38;;;;;;;5.5;1.7;;;;;;;20.32;57.25781;1002.056;;;;
2019/09/05 00:29:03;;;;;;;3.3;1.5;;;;;;;20.25;57.36621;1002.04;;;;
2019/09/05 00:31:28;;;;;;;6.4;2;;;;;;;20.22;58.0293;1002.019;;;;
2019/09/05 00:33:53;;;;;;;6.6;1.9;;;;;;;20.03;58.66016;1001.962;;;;
2019/09/05 00:36:18;;;;;;;4.8;2.3;;;;;;;20.01;59.29883;1001.998;;;;
2019/09/05 00:38:44;;;;;;;5.8;2.1;;;;;;;20;59.24023;1002.024;;;;
2019/09/05 00:41:09;;;;;;;3.8;2.1;;;;;;;19.94;59.22168;1002.042;;;;
2019/09/05 00:43:34;;;;;;;3.6;1.8;;;;;;;19.83;59.40527;1002.104;;;;
2019/09/05 00:45:59;;;;;;;5.3;1.9;;;;;;;19.84;59.17188;1002.115;;;;
2019/09/05 00:48:24;;;;;;;3;1.7;;;;;;;19.9;59.04004;1002.128;;;;
2019/09/05 00:50:49;;;;;;;3.9;1.8;;;;;;;19.9;58.86328;1002.169;;;;
2019/09/05 00:53:14;;;;;;;6.7;1.7;;;;;;;19.96;58.56738;1002.181;;;;
2019/09/05 00:55:39;;;;;;;3.4;2;;;;;;;20.06;58.16016;1002.139;;;;
2019/09/05 00:58:04;;;;;;;3.1;2;;;;;;;20.1;58.03711;1002.172;;;;
2019/09/05 01:00:30;;;;;;;2.9;1.6;;;;;;;20.13;58.01758;1002.172;;;;
2019/09/05 01:02:55;;;;;;;4.9;2.3;;;;;;;19.98;58.7002;1002.232;;;;
2019/09/05 01:05:20;;;;;;;4.5;1.8;;;;;;;19.97;58.70898;1002.253;;;;
2019/09/05 01:07:45;;;;;;;5.1;1.9;;;;;;;19.87;59.14063;1002.281;;;;
2019/09/05 01:10:11;;;;;;;4.2;1.9;;;;;;;20.05;58.79004;1002.308;;;;
2019/09/05 01:12:35;;;;;;;4.7;2.1;;;;;;;20.03;58.94043;1002.315;;;;
2019/09/05 01:15:01;;;;;;;5.3;1.8;;;;;;;19.89;60.12695;1002.348;;;;
2019/09/05 01:17:26;;;;;;;6.3;2.2;;;;;;;20;59.8125;1002.385;;;;
2019/09/05 01:19:51;;;;;;;4.5;2.1;;;;;;;20.13;61.41113;1002.372;;;;
2019/09/05 01:22:16;;;;;;;4;2.2;;;;;;;19.98;62.99316;1002.326;;;;
2019/09/05 01:24:42;;;;;;;3.2;1.9;;;;;;;19.95;62.96484;1002.307;;;;
2019/09/05 01:27:07;;;;;;;3.4;2;;;;;;;19.92;62.78516;1002.36;;;;
2019/09/05 01:29:32;;;;;;;5.4;2;;;;;;;19.78;63.09277;1002.376;;;;
2019/09/05 01:31:57;;;;;;;3.5;2.1;;;;;;;19.8;62.59375;1002.352;;;;
2019/09/05 01:34:22;;;;;;;4.1;1.7;;;;;;;19.82;62.68945;1002.376;;;;
2019/09/05 01:36:47;;;;;;;2.5;1.7;;;;;;;19.78;62.56641;1002.453;;;;
2019/09/05 01:39:13;;;;;;;4.7;1.9;;;;;;;19.85;62.26074;1002.464;;;;
2019/09/05 01:41:38;;;;;;;3.7;2;;;;;;;19.62;63.45605;1002.445;;;;
2019/09/05 01:44:03;;;;;;;4.3;1.9;;;;;;;19.57;64.39355;1002.52;;;;
2019/09/05 01:46:28;;;;;;;3.8;2;;;;;;;19.57;65.22461;1002.557;;;;
2019/09/05 01:48:53;;;;;;;5.1;2.3;;;;;;;19.38;65.40723;1002.553;;;;
2019/09/05 01:51:19;;;;;;;3.8;2.1;;;;;;;19.25;66.20605;1002.485;;;;
2019/09/05 01:53:44;;;;;;;4.1;1.9;;;;;;;19.4;65.49121;1002.483;;;;
2019/09/05 01:56:09;;;;;;;4.7;2.3;;;;;;;19.44;65.8125;1002.527;;;;
2019/09/05 01:58:34;;;;;;;2.9;2;;;;;;;19.42;65.36719;1002.472;;;;
2019/09/05 02:00:59;;;;;;;6.4;2.2;;;;;;;19.4;65.36426;1002.534;;;;
2019/09/05 02:03:25;;;;;;;4;2.3;;;;;;;19.27;66.05566;1002.546;;;;
2019/09/05 02:05:50;;;;;;;4.2;2.2;;;;;;;19.33;66.33398;1002.542;;;;
2019/09/05 02:08:15;;;;;;;4;2.2;;;;;;;19.47;66.61328;1002.609;;;;
2019/09/05 02:10:40;;;;;;;6.4;2.5;;;;;;;19.39;67.8623;1002.714;;;;
2019/09/05 02:13:05;;;;;;;4.2;2.3;;;;;;;19.3;68.24512;1002.741;;;;
2019/09/05 02:15:31;;;;;;;4.1;2.6;;;;;;;19.25;68.79688;1002.768;;;;
2019/09/05 02:17:55;;;;;;;3.7;2.2;;;;;;;19.31;69.19238;1002.692;;;;
2019/09/05 02:20:21;;;;;;;3.6;2.2;;;;;;;19.08;69.39063;1002.657;;;;
2019/09/05 02:22:46;;;;;;;5.2;2.6;;;;;;;18.86;71.30566;1002.557;;;;
2019/09/05 02:25:11;;;;;;;5;2.4;;;;;;;18.79;71.89844;1002.563;;;;
2019/09/05 02:27:36;;;;;;;5.9;2.8;;;;;;;18.73;72.32129;1002.64;;;;
2019/09/05 02:30:01;;;;;;;3.1;2.4;;;;;;;18.69;72.36133;1002.572;;;;
2019/09/05 02:32:26;;;;;;;4;2.7;;;;;;;18.83;72.20996;1002.608;;;;
2019/09/05 02:34:52;;;;;;;3.8;2.6;;;;;;;18.59;73.25586;1002.758;;;;
2019/09/05 02:37:17;;;;;;;4.4;2.6;;;;;;;18.72;72.36523;1002.755;;;;
2019/09/05 02:39:42;;;;;;;6.8;3.1;;;;;;;18.77;72.45605;1002.621;;;;
2019/09/05 02:42:07;;;;;;;3.9;2.7;;;;;;;18.56;75.12695;1002.67;;;;
2019/09/05 02:44:32;;;;;;;5.3;2.9;;;;;;;18.5;75.09473;1002.638;;;;
2019/09/05 02:46:57;;;;;;;5;2.8;;;;;;;18.47;75.22852;1002.691;;;;
2019/09/05 02:49:22;;;;;;;5.4;2.7;;;;;;;18.53;75.65723;1002.795;;;;
2019/09/05 02:51:48;;;;;;;5.4;2.8;;;;;;;18.32;75.98438;1002.836;;;;
2019/09/05 02:54:13;;;;;;;6.1;2.9;;;;;;;18.24;76.77441;1002.822;;;;
2019/09/05 02:56:38;;;;;;;4.7;2.9;;;;;;;18.23;77.62305;1002.856;;;;
2019/09/05 02:59:03;;;;;;;4.2;2.6;;;;;;;18.18;76.34277;1002.815;;;;
2019/09/05 03:01:28;;;;;;;5.9;2.7;;;;;;;18.16;76.91016;1002.84;;;;
2019/09/05 03:03:53;;;;;;;4.9;2.8;;;;;;;18.07;77.94434;1002.845;;;;
2019/09/05 03:06:18;;;;;;;5.6;3;;;;;;;18.12;76.29785;1002.865;;;;
2019/09/05 03:08:44;;;;;;;4.9;2.9;;;;;;;18.11;77.12402;1002.907;;;;
2019/09/05 03:11:09;;;;;;;7;3;;;;;;;18.12;77.06738;1002.917;;;;
2019/09/05 03:13:34;;;;;;;5.9;3.1;;;;;;;17.99;77.7998;1002.919;;;;
2019/09/05 03:15:59;;;;;;;5.8;3.1;;;;;;;17.93;78.15039;1002.915;;;;
2019/09/05 03:18:25;;;;;;;5.1;3.2;;;;;;;17.83;78.54297;1002.922;;;;
2019/09/05 03:20:50;;;;;;;6.2;3.3;;;;;;;17.74;79.23535;1002.937;;;;
2019/09/05 03:23:15;;;;;;;5.3;3;;;;;;;17.75;79.30566;1002.955;;;;
2019/09/05 03:25:40;;;;;;;5.5;3.4;;;;;;;17.58;79.95117;1003.002;;;;
2019/09/05 03:28:05;;;;;;;5.6;3.2;;;;;;;17.44;79.84277;1002.96;;;;
2019/09/05 03:30:31;;;;;;;6.9;3.3;;;;;;;17.46;80.28809;1002.977;;;;
2019/09/05 03:32:56;;;;;;;5.3;2.9;;;;;;;17.39;81.14941;1003.008;;;;
2019/09/05 03:35:21;;;;;;;7.2;3.2;;;;;;;17.48;80.18848;1002.954;;;;
2019/09/05 03:37:46;;;;;;;5.2;3;;;;;;;17.41;81.31543;1002.979;;;;
2019/09/05 03:40:11;;;;;;;7.7;3.1;;;;;;;17.55;80.19043;1002.968;;;;
2019/09/05 03:42:36;;;;;;;3.9;2.9;;;;;;;17.29;81.05078;1002.966;;;;
2019/09/05 03:45:01;;;;;;;5.9;3.1;;;;;;;17.29;80.57422;1002.908;;;;
2019/09/05 03:47:27;;;;;;;4.6;2.7;;;;;;;17.35;80.36328;1002.897;;;;
2019/09/05 03:49:52;;;;;;;4.8;2.6;;;;;;;17.11;80.99121;1002.98;;;;
2019/09/05 03:52:17;;;;;;;4.5;2.6;;;;;;;17.2;79.82422;1003.042;;;;
2019/09/05 03:54:42;;;;;;;4;2.8;;;;;;;17.13;80.35742;1003.083;;;;
2019/09/05 03:57:07;;;;;;;7.6;2.9;;;;;;;17.04;81.24805;1003.085;;;;
2019/09/05 03:59:32;;;;;;;4.3;2.7;;;;;;;17;80.82031;1003.108;;;;
2019/09/05 04:02:28;;;;;;;4.7;3.2;;;;;;;17.07;81.1123;1003.155;;;;
2019/09/05 04:04:53;;;;;;;5.2;3.1;;;;;;;17.03;80.60645;1003.249;;;;
2019/09/05 04:07:18;;;;;;;5;3;;;;;;;17.02;81.29004;1003.278;;;;
2019/09/05 04:09:43;;;;;;;4.6;3.2;;;;;;;17.09;80.9082;1003.271;;;;
2019/09/05 04:12:08;;;;;;;4.6;3.2;;;;;;;17.1;80.9082;1003.271;;;;
2019/09/05 04:14:34;;;;;;;7.7;3.3;;;;;;;17.08;81.83496;1003.419;;;;
2019/09/05 04:16:59;;;;;;;7.6;3.4;;;;;;;17.02;81.40625;1003.461;;;;
2019/09/05 04:19:24;;;;;;;5.6;3.2;;;;;;;16.96;82.2207;1003.5;;;;
2019/09/05 04:21:49;;;;;;;6.2;3.3;;;;;;;16.91;82.22266;1003.526;;;;
2019/09/05 04:24:14;;;;;;;6.8;3.5;;;;;;;17.03;81.89551;1003.516;;;;
2019/09/05 04:26:39;;;;;;;5.2;3.3;;;;;;;17.04;81.51563;1003.524;;;;
2019/09/05 04:29:04;;;;;;;6.4;3.3;;;;;;;17.1;81.53711;1003.548;;;;
2019/09/05 04:31:29;;;;;;;6.2;3.6;;;;;;;17;82.25098;1003.533;;;;
2019/09/05 04:33:55;;;;;;;6;3.5;;;;;;;17.02;82.21973;1003.622;;;;
2019/09/05 04:36:19;;;;;;;5.7;3.5;;;;;;;16.92;81.99023;1003.638;;;;
2019/09/05 04:38:44;;;;;;;7.4;3.4;;;;;;;16.9;82.8584;1003.688;;;;
2019/09/05 04:41:10;;;;;;;4.8;3;;;;;;;16.86;82.73535;1003.692;;;;
2019/09/05 04:43:35;;;;;;;7;3.6;;;;;;;16.86;82.63184;1003.733;;;;
2019/09/05 04:46:00;;;;;;;6.4;3.4;;;;;;;16.83;82.95117;1003.718;;;;
2019/09/05 04:48:25;;;;;;;6.9;3.5;;;;;;;16.77;83.08984;1003.746;;;;
2019/09/05 04:50:50;;;;;;;5.2;3.8;;;;;;;16.7;83.61035;1003.794;;;;
2019/09/05 04:53:15;;;;;;;6.2;3.7;;;;;;;16.67;83.65137;1003.854;;;;
2019/09/05 04:55:40;;;;;;;5.6;3.6;;;;;;;16.6;84.05762;1003.942;;;;
2019/09/05 04:58:05;;;;;;;8.3;3.5;;;;;;;16.6;83.89453;1003.954;;;;
2019/09/05 05:00:30;;;;;;;6.2;3.7;;;;;;;16.52;83.72656;1003.941;;;;
2019/09/05 05:02:55;;;;;;;6.3;3.4;;;;;;;16.45;83.93359;1003.899;;;;
2019/09/05 05:05:20;;;;;;;8.5;3.8;;;;;;;16.45;84.72266;1004.006;;;;
2019/09/05 05:07:46;;;;;;;5.3;3.6;;;;;;;16.39;83.63281;1004.095;;;;
2019/09/05 05:10:11;;;;;;;6;3.9;;;;;;;16.36;83.9873;1004.181;;;;
2019/09/05 05:12:36;;;;;;;8.2;3.5;;;;;;;16.42;81.78125;1004.119;;;;
2019/09/05 05:15:01;;;;;;;6.3;3.5;;;;;;;16.45;82.29883;1004.153;;;;
2019/09/05 05:17:26;;;;;;;7.3;3.7;;;;;;;16.49;81.63086;1004.199;;;;
2019/09/05 05:19:51;;;;;;;6.6;3.5;;;;;;;16.63;81.21875;1004.267;;;;
2019/09/05 05:22:16;;;;;;;4.6;3.3;;;;;;;16.47;78.32227;1004.274;;;;
2019/09/05 05:24:41;;;;;;;5;3.4;;;;;;;16.72;77.49609;1004.371;;;;
2019/09/05 05:27:06;;;;;;;6.6;3.2;;;;;;;16.78;76.59961;1004.398;;;;
2019/09/05 05:29:31;;;;;;;6.5;3.5;;;;;;;16.81;76.58301;1004.444;;;;
2019/09/05 05:31:56;;;;;;;11.3;3.1;;;;;;;16.71;75.15918;1004.535;;;;
2019/09/05 05:34:22;;;;;;;5.9;2.7;;;;;;;17.03;74.07617;1004.622;;;;
2019/09/05 05:36:47;;;;;;;6.3;3;;;;;;;16.81;74.2832;1004.619;;;;
2019/09/05 05:39:12;;;;;;;6.9;3.3;;;;;;;16.81;74.17871;1004.705;;;;
2019/09/05 05:41:37;;;;;;;7.9;3;;;;;;;16.89;73.23828;1004.707;;;;
2019/09/05 05:44:02;;;;;;;5.9;2.6;;;;;;;16.7;73.35938;1004.707;;;;
2019/09/05 05:46:27;;;;;;;7.2;2.8;;;;;;;16.76;72.0791;1004.723;;;;
2019/09/05 05:48:52;;;;;;;5.8;2.9;;;;;;;16.6;71.77441;1004.767;;;;
2019/09/05 05:51:17;;;;;;;5.9;2.9;;;;;;;16.71;71.64258;1004.763;;;;
2019/09/05 05:53:42;;;;;;;5.2;2.6;;;;;;;16.6;71.22949;1004.833;;;;
2019/09/05 05:56:07;;;;;;;11.2;2.8;;;;;;;16.82;70.37109;1004.816;;;;
2019/09/05 05:58:33;;;;;;;4.8;2.5;;;;;;;16.75;68.62891;1004.838;;;;
2019/09/05 06:00:58;;;;;;;5.8;2.4;;;;;;;17.06;67.8877;1004.815;;;;
2019/09/05 06:03:23;;;;;;;7;2.5;;;;;;;17.06;67.26074;1004.752;;;;
2019/09/05 06:05:48;;;;;;;8.1;2.4;;;;;;;17.23;66.73926;1004.73;;;;
2019/09/05 06:08:14;;;;;;;6.9;2;;;;;;;17.39;65.72754;1004.817;;;;
2019/09/05 06:10:39;;;;;;;7.4;2.4;;;;;;;17.5;65.66504;1004.885;;;;
2019/09/05 06:13:04;;;;;;;10.2;2.8;;;;;;;17.29;65.63281;1004.988;;;;
2019/09/05 06:15:29;;;;;;;4;1.9;;;;;;;17.69;64.87793;1005.063;;;;
2019/09/05 06:17:54;;;;;;;8.7;2.4;;;;;;;17.98;64.26855;1005.092;;;;
2019/09/05 06:20:19;;;;;;;7.3;2.3;;;;;;;17.7;64.44922;1005.01;;;;
2019/09/05 06:22:45;;;;;;;6.7;2.3;;;;;;;17.85;64.64453;1005.096;;;;
2019/09/05 06:25:10;;;;;;;8.8;2.2;;;;;;;18.12;63.29785;1005.115;;;;
2019/09/05 06:27:35;;;;;;;5.6;2.2;;;;;;;17.92;64.38672;1005.079;;;;
2019/09/05 06:30:00;;;;;;;7;2.3;;;;;;;17.45;66.40137;1005.056;;;;
2019/09/05 06:32:26;;;;;;;7.5;2.2;;;;;;;17.41;66.59082;1005.035;;;;
2019/09/05 06:34:51;;;;;;;6.6;2.4;;;;;;;18.06;64.69824;1005.085;;;;
2019/09/05 06:37:16;;;;;;;6.5;2.2;;;;;;;17.88;64.77832;1004.973;;;;
2019/09/05 06:39:41;;;;;;;7.9;2.5;;;;;;;18.19;64.09961;1004.97;;;;
2019/09/05 06:42:06;;;;;;;4.4;2;;;;;;;17.92;64.47949;1004.995;;;;
2019/09/05 06:44:31;;;;;;;8.3;2.3;;;;;;;17.77;64.95898;1005.08;;;;
2019/09/05 06:46:56;;;;;;;9.5;2.3;;;;;;;17.57;65.08105;1005.19;;;;
2019/09/05 06:49:21;;;;;;;6.1;2.1;;;;;;;17.23;66.21582;1005.21;;;;
2019/09/05 06:51:47;;;;;;;5.7;2.1;;;;;;;17.34;65.98926;1005.169;;;;
2019/09/05 06:54:12;;;;;;;6.5;2.6;;;;;;;17.3;65.90137;1005.267;;;;
2019/09/05 06:56:38;;;;;;;7.4;2.2;;;;;;;17.04;66.99023;1005.248;;;;
2019/09/05 06:59:02;;;;;;;7.4;2.3;;;;;;;17.31;66.41406;1005.212;;;;
2019/09/05 07:01:27;;;;;;;9.1;2.5;;;;;;;17.12;67.5127;1005.184;;;;
2019/09/05 07:03:52;;;;;;;7;2.1;;;;;;;17.23;66.59961;1005.123;;;;
2019/09/05 07:06:17;;;;;;;7.3;2.2;;;;;;;17.78;64.79688;1005.16;;;;
2019/09/05 07:08:42;;;;;;;7.9;2.2;;;;;;;17.83;64.3623;1005.305;;;;
2019/09/05 07:11:07;;;;;;;4.8;1.8;;;;;;;17.93;63.92188;1005.423;;;;
2019/09/05 07:13:33;;;;;;;9.4;2.5;;;;;;;17.69;64.7959;1005.507;;;;
2019/09/05 07:15:58;;;;;;;6.9;2.3;;;;;;;17.98;63.7666;1005.625;;;;
2019/09/05 07:18:23;;;;;;;8.6;2;;;;;;;17.86;64.25;1005.771;;;;
2019/09/05 07:20:48;;;;;;;8;2;;;;;;;18.66;61.85938;1005.815;;;;
2019/09/05 07:23:13;;;;;;;8.1;2.2;;;;;;;18.94;60.58008;1005.896;;;;
2019/09/05 07:25:38;;;;;;;7.7;2.3;;;;;;;18.61;61.60742;1005.945;;;;
2019/09/05 07:28:03;;;;;;;5.9;2.2;;;;;;;17.77;63.92188;1006.049;;;;
2019/09/05 07:30:28;;;;;;;9.6;2;;;;;;;17.84;64.59668;1006.04;;;;
2019/09/05 07:32:53;;;;;;;7.7;2.2;;;;;;;17.92;64.49219;1005.991;;;;
2019/09/05 07:35:19;;;;;;;6.3;2.1;;;;;;;17.54;65.75;1005.932;;;;
2019/09/05 07:37:44;;;;;;;6.9;2.2;;;;;;;18.68;61.68848;1005.823;;;;
2019/09/05 07:40:09;;;;;;;7.6;2.1;;;;;;;20.17;57.95117;1005.805;;;;
2019/09/05 07:42:34;;;;;;;12.9;2.2;;;;;;;21.48;53.51074;1005.826;;;;
2019/09/05 07:44:59;;;;;;;9.3;2;;;;;;;20.82;54.58008;1005.841;;;;
2019/09/05 07:47:24;;;;;;;6.2;1.9;;;;;;;21.21;53.54883;1005.865;;;;
2019/09/05 07:49:49;;;;;;;7.4;2;;;;;;;23.08;48.88574;1005.806;;;;
2019/09/05 07:52:14;;;;;;;8.1;2.1;;;;;;;22.2;51.07031;1005.854;;;;
2019/09/05 07:54:39;;;;;;;6.9;1.9;;;;;;;21.2;53.4541;1005.812;;;;
2019/09/05 07:57:04;;;;;;;5.8;1.9;;;;;;;20.97;54.12988;1005.777;;;;
2019/09/05 07:59:29;;;;;;;7.1;2.1;;;;;;;21.64;52.46191;1005.759;;;;
2019/09/05 08:01:54;;;;;;;7.3;2.1;;;;;;;22.57;50.0293;1005.685;;;;
2019/09/05 08:04:20;;;;;;;9.7;2.2;;;;;;;23.74;46.31641;1005.667;;;;
2019/09/05 08:06:45;;;;;;;6.2;2;;;;;;;22.43;49.37988;1005.716;;;;
2019/09/05 08:09:10;;;;;;;7.8;2;;;;;;;21.32;51.52148;1005.706;;;;
2019/09/05 08:11:35;;;;;;;9.6;2.6;;;;;;;20.79;53.68652;1005.788;;;;
2019/09/05 08:14:00;;;;;;;10.2;2.5;;;;;;;19.96;56.24121;1005.844;;;;
2019/09/05 08:16:25;;;;;;;8.1;2.1;;;;;;;19.43;57.77441;1005.879;;;;
2019/09/05 08:18:50;;;;;;;6.4;2.1;;;;;;;19.3;58.16504;1005.858;;;;
2019/09/05 08:21:15;;;;;;;8;1.9;;;;;;;19.85;56.4248;1005.847;;;;
2019/09/05 08:23:40;;;;;;;6.3;1.8;;;;;;;21.05;53.03711;1005.818;;;;
2019/09/05 08:26:05;;;;;;;7.8;1.9;;;;;;;22.03;50.22852;1005.843;;;;
2019/09/05 08:28:30;;;;;;;8.9;2.2;;;;;;;22.79;47.87793;1005.79;;;;
2019/09/05 08:30:55;;;;;;;6;1.8;;;;;;;23.22;47.16895;1005.819;;;;
2019/09/05 08:33:21;;;;;;;9.1;2.4;;;;;;;23.28;46.89355;1005.793;;;;
2019/09/05 08:35:46;;;;;;;7.3;1.7;;;;;;;21.94;49.80664;1005.843;;;;
2019/09/05 08:38:11;;;;;;;7.3;2;;;;;;;21.68;49.98828;1005.839;;;;
2019/09/05 08:40:36;;;;;;;8.2;2.4;;;;;;;20.92;51.07617;1005.852;;;;
2019/09/05 08:43:01;;;;;;;8.1;2.2;;;;;;;20.39;50.81543;1005.929;;;;
2019/09/05 08:45:26;;;;;;;6.5;2.2;;;;;;;20.41;50.44238;1006.004;;;;
2019/09/05 08:47:51;;;;;;;8.7;2.4;;;;;;;19.73;52.25977;1006.027;;;;
2019/09/05 08:50:16;;;;;;;5.7;2;;;;;;;19.51;52.73535;1006.064;;;;
2019/09/05 08:52:42;;;;;;;6.4;2.8;;;;;;;20.08;52.00781;1006;;;;
2019/09/05 08:55:07;;;;;;;5.7;2.1;;;;;;;20.57;50.60156;1006.03;;;;
2019/09/05 08:57:32;;;;;;;7.5;2.2;;;;;;;21.02;49.39844;1005.967;;;;
2019/09/05 08:59:57;;;;;;;6.8;2.1;;;;;;;21.1;48.72754;1006.046;;;;
2019/09/05 09:02:22;;;;;;;8;2.2;;;;;;;21.28;48.39551;1006.038;;;;
2019/09/05 09:04:47;;;;;;;7.6;2.3;;;;;;;21.1;49.27832;1005.912;;;;
2019/09/05 09:07:12;;;;;;;10.3;2.6;;;;;;;20.73;49.51758;1006.008;;;;
2019/09/05 09:09:37;;;;;;;7.7;2.2;;;;;;;20.84;49.84766;1006.107;;;;
2019/09/05 09:12:03;;;;;;;7.2;2.3;;;;;;;20;51.54297;1006.174;;;;
2019/09/05 09:14:28;;;;;;;8.7;2.2;;;;;;;20.07;50.24121;1006.181;;;;
2019/09/05 09:16:53;;;;;;;8.2;2.3;;;;;;;20.07;50.48633;1006.229;;;;
2019/09/05 09:19:20;;;;;;;6;2.1;;;;;;;19.82;50.21094;1006.214;;;;
2019/09/05 09:21:43;;;;;;;8.4;2.1;;;;;;;19.86;49.95898;1006.214;;;;
2019/09/05 09:24:08;;;;;;;7.4;2.2;;;;;;;19.87;50.42773;1006.185;;;;
2019/09/05 09:26:33;;;;;;;7.9;2.4;;;;;;;19.58;51.1084;1006.252;;;;
2019/09/05 09:28:58;;;;;;;7.4;2.4;;;;;;;19.29;52.22949;1006.29;;;;
2019/09/05 09:31:24;;;;;;;8;2.9;;;;;;;19.08;52.31152;1006.304;;;;
2019/09/05 09:33:49;;;;;;;6;2.2;;;;;;;19.23;52.18848;1006.277;;;;
2019/09/05 09:36:14;;;;;;;5.5;2.2;;;;;;;19.58;51.64648;1006.29;;;;
2019/09/05 09:38:39;;;;;;;7.6;2.2;;;;;;;19.64;51.64063;1006.333;;;;
2019/09/05 09:41:04;;;;;;;7.3;2.3;;;;;;;19.27;52.04199;1006.31;;;;
2019/09/05 09:43:29;;;;;;;6.7;2.2;;;;;;;19.83;50.96289;1006.364;;;;
2019/09/05 09:45:54;;;;;;;7.7;2.3;;;;;;;19.64;51.67676;1006.333;;;;
2019/09/05 09:48:19;;;;;;;7.5;2;;;;;;;19.69;50.67578;1006.31;;;;
2019/09/05 09:50:44;;;;;;;5.6;2.1;;;;;;;19.85;49.85254;1006.363;;;;
2019/09/05 09:53:10;;;;;;;7.2;2.1;;;;;;;19.61;50.52734;1006.336;;;;
2019/09/05 09:55:35;;;;;;;9.3;2.7;;;;;;;20.27;49.19824;1006.423;;;;
2019/09/05 09:58:00;;;;;;;7.1;2.1;;;;;;;20.54;48.67676;1006.397;;;;
2019/09/05 10:00:27;;;;;;;6.2;2.2;;;;;;;20.38;48.78906;1006.433;;;;
2019/09/05 10:02:50;;;;;;;9.5;2;;;;;;;20.36;49.03125;1006.513;;;;
2019/09/05 10:05:16;;;;;;;25.3;11;;;;;;;20.43;49.54395;1006.546;;;;
2019/09/05 10:07:41;;;;;;;6.6;2.1;;;;;;;20.44;49.33398;1006.554;;;;
2019/09/05 10:10:06;;;;;;;12.1;2.4;;;;;;;20.69;48.70508;1006.583;;;;
2019/09/05 10:12:31;;;;;;;10.2;2.5;;;;;;;21.11;46.95801;1006.632;;;;
2019/09/05 10:14:56;;;;;;;6.4;2.4;;;;;;;21.36;46.38477;1006.569;;;;
2019/09/05 10:17:22;;;;;;;8.1;2.4;;;;;;;21.12;47.47559;1006.592;;;;
2019/09/05 10:19:47;;;;;;;7;2.4;;;;;;;20.53;48.20801;1006.535;;;;
2019/09/05 10:22:12;;;;;;;6.1;2;;;;;;;20.66;48.31543;1006.548;;;;
2019/09/05 10:24:37;;;;;;;7.9;2.3;;;;;;;20.54;47.97559;1006.547;;;;
2019/09/05 10:27:02;;;;;;;5.8;2.2;;;;;;;20.71;46.64551;1006.563;;;;
2019/09/05 10:29:27;;;;;;;8.5;2.2;;;;;;;21.02;45.96289;1006.613;;;;
2019/09/05 10:31:52;;;;;;;4.9;1.9;;;;;;;21.19;45.20703;1006.572;;;;
2019/09/05 10:34:17;;;;;;;6.7;1.8;;;;;;;21.02;46.2207;1006.566;;;;
2019/09/05 10:36:43;;;;;;;8;2.1;;;;;;;20.75;46.95508;1006.559;;;;
2019/09/05 10:39:08;;;;;;;6.1;1.8;;;;;;;20.86;46.00586;1006.576;;;;
2019/09/05 10:41:33;;;;;;;6.2;2.1;;;;;;;21.22;45.65527;1006.554;;;;
2019/09/05 10:43:58;;;;;;;5.8;2.6;;;;;;;21.85;43.51172;1006.617;;;;
2019/09/05 10:46:23;;;;;;;6;2.1;;;;;;;21.6;43.88672;1006.604;;;;
2019/09/05 10:48:49;;;;;;;9.1;5.1;;;;;;;21.63;43.97266;1006.613;;;;
2019/09/05 10:51:14;;;;;;;5;2.1;;;;;;;22.15;42.90723;1006.603;;;;
2019/09/05 10:53:39;;;;;;;4.7;2;;;;;;;22.33;42.87695;1006.546;;;;
2019/09/05 10:56:04;;;;;;;4.7;2.2;;;;;;;20.91;45.51855;1006.562;;;;
2019/09/05 10:58:29;;;;;;;7.2;2.3;;;;;;;20.83;46.02539;1006.607;;;;
2019/09/05 11:00:54;;;;;;;8.3;2.9;;;;;;;21.04;45.48438;1006.637;;;;
2019/09/05 11:03:19;;;;;;;6.4;2.3;;;;;;;20.61;46.37793;1006.596;;;;
2019/09/05 11:05:44;;;;;;;6.4;2.5;;;;;;;21.26;44.86133;1006.557;;;;
2019/09/05 11:08:10;;;;;;;7.1;2.5;;;;;;;21.53;44.30273;1006.582;;;;
2019/09/05 11:10:36;;;;;;;5.2;2.5;;;;;;;21.61;44.11035;1006.594;;;;
2019/09/05 11:13:00;;;;;;;7.3;2.4;;;;;;;21.31;44.92578;1006.565;;;;
2019/09/05 11:15:25;;;;;;;6.1;2.6;;;;;;;21.64;43.79688;1006.611;;;;
2019/09/05 11:17:51;;;;;;;6.8;2.5;;;;;;;21.19;44.94824;1006.669;;;;
2019/09/05 11:20:16;;;;;;;5.7;2.5;;;;;;;21.59;44.21387;1006.693;;;;
2019/09/05 11:22:41;;;;;;;7.1;2.7;;;;;;;20.94;45.43848;1006.757;;;;
2019/09/05 11:25:06;;;;;;;7;2.6;;;;;;;20.99;45.44434;1006.719;;;;
2019/09/05 11:27:31;;;;;;;6.5;2.5;;;;;;;20.31;46.98926;1006.753;;;;
2019/09/05 11:29:56;;;;;;;7.7;2.7;;;;;;;20.77;46.3125;1006.812;;;;
2019/09/05 11:32:21;;;;;;;5.9;2.2;;;;;;;20.94;45.05176;1006.805;;;;
2019/09/05 11:34:47;;;;;;;6.1;2.4;;;;;;;21.34;44.42383;1006.748;;;;
2019/09/05 11:37:12;;;;;;;7.9;2.8;;;;;;;21.23;44.20117;1006.834;;;;
2019/09/05 11:39:37;;;;;;;6.6;2.6;;;;;;;21.2;44.99609;1006.773;;;;
2019/09/05 11:42:02;;;;;;;6.8;2.3;;;;;;;21.32;43.78809;1006.692;;;;
2019/09/05 11:44:28;;;;;;;4.3;2.3;;;;;;;21.64;43.0918;1006.778;;;;
2019/09/05 11:46:53;;;;;;;5.6;2.5;;;;;;;21.17;44.27832;1006.812;;;;
2019/09/05 11:49:18;;;;;;;3.9;2.4;;;;;;;21.56;43.00195;1006.768;;;;
2019/09/05 11:51:43;;;;;;;5.8;2.5;;;;;;;21.42;43.50586;1006.833;;;;
2019/09/05 11:54:08;;;;;;;6.1;2.5;;;;;;;21.64;43.19824;1006.781;;;;
2019/09/05 11:56:34;;;;;;;4;2.2;;;;;;;21.33;43.82422;1006.774;;;;
2019/09/05 11:58:59;;;;;;;5.8;2.4;;;;;;;21.69;43.08594;1006.753;;;;
2019/09/05 12:01:24;;;;;;;4.6;2.2;;;;;;;21.32;43.96484;1006.74;;;;
2019/09/05 12:03:49;;;;;;;4.6;2.3;;;;;;;21.18;43.82129;1006.723;;;;
2019/09/05 12:06:15;;;;;;;5.4;2.5;;;;;;;21.17;44.04395;1006.75;;;;
2019/09/05 12:08:39;;;;;;;4.5;2.2;;;;;;;21.13;43.99316;1006.743;;;;
2019/09/05 12:11:04;;;;;;;7.3;2.6;;;;;;;20.83;44.80664;1006.773;;;;
2019/09/05 12:13:29;;;;;;;3.8;2.4;;;;;;;21.14;44.0752;1006.771;;;;
2019/09/05 12:15:55;;;;;;;7;2.3;;;;;;;20.97;44.39941;1006.761;;;;
2019/09/05 12:18:20;;;;;;;5.4;2.4;;;;;;;20.85;44.9375;1006.742;;;;
2019/09/05 12:20:45;;;;;;;5.2;2.6;;;;;;;20.97;44.7627;1006.758;;;;
2019/09/05 12:23:10;;;;;;;4.7;2.3;;;;;;;20.97;43.80078;1006.741;;;;
2019/09/05 12:25:35;;;;;;;5.2;2.2;;;;;;;21.33;43.23828;1006.625;;;;
2019/09/05 12:28:00;;;;;;;5.1;2.2;;;;;;;22.05;41.97949;1006.639;;;;
2019/09/05 12:30:25;;;;;;;4.7;2.4;;;;;;;21.78;42.49414;1006.61;;;;
2019/09/05 12:32:50;;;;;;;4.6;2.3;;;;;;;21.67;42.4248;1006.627;;;;
2019/09/05 12:35:15;;;;;;;5;2.2;;;;;;;21.71;42.79395;1006.632;;;;
2019/09/05 12:37:40;;;;;;;8.5;2.6;;;;;;;22.07;42.39355;1006.636;;;;
2019/09/05 12:40:06;;;;;;;5.7;2.2;;;;;;;22.14;41.88379;1006.62;;;;
2019/09/05 12:42:31;;;;;;;5.1;2.3;;;;;;;22.78;40.63672;1006.595;;;;
2019/09/05 12:44:56;;;;;;;4.3;2;;;;;;;22.92;39.51855;1006.562;;;;
2019/09/05 12:47:21;;;;;;;5.8;2.1;;;;;;;23.1;38.68652;1006.576;;;;
2019/09/05 12:49:46;;;;;;;4.9;1.6;;;;;;;23.25;38.0166;1006.603;;;;
2019/09/05 12:52:11;;;;;;;5.5;1.7;;;;;;;22.77;37.7041;1006.673;;;;
2019/09/05 12:54:36;;;;;;;4.4;1.5;;;;;;;22.87;37.54785;1006.62;;;;
2019/09/05 12:57:01;;;;;;;2.7;1.6;;;;;;;22.88;37.90234;1006.669;;;;
2019/09/05 12:59:26;;;;;;;4.9;1.6;;;;;;;22.95;38.46191;1006.659;;;;
2019/09/05 13:01:51;;;;;;;3;1.6;;;;;;;22.52;38.78906;1006.727;;;;
2019/09/05 13:04:16;;;;;;;2.8;1.4;;;;;;;22.12;38.66113;1006.583;;;;
2019/09/05 13:06:42;;;;;;;3.3;1.5;;;;;;;22.55;38.20313;1006.607;;;;
2019/09/05 13:09:07;;;;;;;4.7;1.5;;;;;;;22.78;36.62305;1006.588;;;;
2019/09/05 13:11:32;;;;;;;5.1;1.4;;;;;;;23.03;36.57227;1006.628;;;;
2019/09/05 13:13:57;;;;;;;4.2;1.8;;;;;;;22.63;37.45703;1006.651;;;;
2019/09/05 13:16:22;;;;;;;3.2;1.5;;;;;;;23.12;36.46191;1006.639;;;;
2019/09/05 13:18:47;;;;;;;2.9;1.5;;;;;;;22.93;36.45801;1006.629;;;;
2019/09/05 13:21:12;;;;;;;3.7;1.7;;;;;;;23.04;36.76172;1006.637;;;;
2019/09/05 13:23:37;;;;;;;4.7;1.7;;;;;;;22.59;37.80664;1006.674;;;;
2019/09/05 13:26:02;;;;;;;3.5;1.6;;;;;;;22.73;38.00684;1006.679;;;;
2019/09/05 13:28:27;;;;;;;4;1.7;;;;;;;22.46;38.04297;1006.711;;;;
2019/09/05 13:30:52;;;;;;;3.8;1.6;;;;;;;22.06;38.7959;1006.716;;;;
2019/09/05 13:33:18;;;;;;;4;1.7;;;;;;;21.95;39.0918;1006.745;;;;
2019/09/05 13:35:43;;;;;;;5;1.8;;;;;;;21.93;39.48926;1006.751;;;;
2019/09/05 13:38:08;;;;;;;6.3;1.8;;;;;;;21.85;39.56348;1006.704;;;;
2019/09/05 13:40:33;;;;;;;3.9;1.5;;;;;;;21.87;39.07324;1006.686;;;;
2019/09/05 13:42:58;;;;;;;3.1;1.5;;;;;;;22.18;39.04102;1006.745;;;;
2019/09/05 13:45:24;;;;;;;4.4;1.6;;;;;;;22.18;37.38379;1006.674;;;;
2019/09/05 13:47:49;;;;;;;4.2;1.6;;;;;;;22.28;37.33398;1006.639;;;;
2019/09/05 13:50:14;;;;;;;4.1;1.5;;;;;;;22.39;37.07324;1006.706;;;;
2019/09/05 13:52:39;;;;;;;4.4;1.5;;;;;;;22.44;37.64063;1006.693;;;;
2019/09/05 13:55:04;;;;;;;4.9;1.5;;;;;;;22.56;37.32227;1006.617;;;;
2019/09/05 13:57:29;;;;;;;5.1;1.6;;;;;;;22.63;37.82227;1006.596;;;;
2019/09/05 13:59:54;;;;;;;3.6;1.7;;;;;;;22.32;38.56055;1006.492;;;;
2019/09/05 14:02:19;;;;;;;4.3;1.7;;;;;;;22.18;38.77051;1006.516;;;;
2019/09/05 14:04:44;;;;;;;4.2;1.5;;;;;;;22.45;38.19629;1006.546;;;;
2019/09/05 14:07:10;;;;;;;4.3;1.7;;;;;;;22.38;37.96582;1006.574;;;;
2019/09/05 14:09:35;;;;;;;5;2;;;;;;;22.49;37.59863;1006.636;;;;
2019/09/05 14:12:00;;;;;;;4.2;1.7;;;;;;;22.23;37.90527;1006.616;;;;